sensor_id;sensor_type;location;lat;lon;timestamp;P1;durP1;ratioP1;P2;durP2;ratioP2
71814;SDS011;59659;41.520;23.794;2023-01-20T00:00:59;7.65;;;1.90;;
71814;SDS011;59659;41.520;23.794;2023-01-20T00:02:10;2.28;;;1.40;;
71814;SDS011;59659;41.520;23.794;2023-01-20T00:03:22;3.42;;;1.15;;
71814;SDS011;59659;41.520;23.794;2023-01-20T00:04:33;3.60;;;1.08;;
71814;SDS011;59659;41.520;23.794;2023-01-20T00:05:51;6.43;;;1.55;;
71814;SDS011;59659;41.520;23.794;2023-01-20T00:07:02;9.73;;;1.50;;
71814;SDS011;59659;41.520;23.794;2023-01-20T00:08:14;8.85;;;2.03;;
71814;SDS011;59659;41.520;23.794;2023-01-20T00:09:25;7.78;;;2.53;;
71814;SDS011;59659;41.520;23.794;2023-01-20T00:10:37;5.78;;;1.33;;
71814;SDS011;59659;41.520;23.794;2023-01-20T00:11:48;10.05;;;1.42;;
71814;SDS011;59659;41.520;23.794;2023-01-20T00:13:00;4.43;;;1.08;;
71814;SDS011;59659;41.520;23.794;2023-01-20T00:14:11;6.18;;;1.65;;
71814;SDS011;59659;41.520;23.794;2023-01-20T00:15:23;2.08;;;0.98;;
71814;SDS011;59659;41.520;23.794;2023-01-20T00:16:34;9.48;;;1.92;;
71814;SDS011;59659;41.520;23.794;2023-01-20T00:17:46;6.45;;;1.38;;
71814;SDS011;59659;41.520;23.794;2023-01-20T00:18:57;8.13;;;1.48;;
71814;SDS011;59659;41.520;23.794;2023-01-20T00:20:09;8.00;;;1.02;;
71814;SDS011;59659;41.520;23.794;2023-01-20T00:21:21;4.47;;;1.45;;
71814;SDS011;59659;41.520;23.794;2023-01-20T00:22:32;10.27;;;1.17;;
71814;SDS011;59659;41.520;23.794;2023-01-20T00:23:45;7.75;;;2.00;;
71814;SDS011;59659;41.520;23.794;2023-01-20T00:24:57;7.85;;;1.73;;
71814;SDS011;59659;41.520;23.794;2023-01-20T00:26:09;1.40;;;1.00;;
71814;SDS011;59659;41.520;23.794;2023-01-20T00:27:21;1.90;;;1.67;;
71814;SDS011;59659;41.520;23.794;2023-01-20T00:28:33;4.88;;;1.25;;
71814;SDS011;59659;41.520;23.794;2023-01-20T00:29:45;5.25;;;1.75;;
71814;SDS011;59659;41.520;23.794;2023-01-20T00:30:56;2.17;;;1.02;;
71814;SDS011;59659;41.520;23.794;2023-01-20T00:32:11;6.07;;;1.67;;
71814;SDS011;59659;41.520;23.794;2023-01-20T00:33:22;6.55;;;0.93;;
71814;SDS011;59659;41.520;23.794;2023-01-20T00:34:34;3.30;;;1.00;;
71814;SDS011;59659;41.520;23.794;2023-01-20T00:35:45;5.18;;;0.95;;
71814;SDS011;59659;41.520;23.794;2023-01-20T00:36:57;7.38;;;1.05;;
71814;SDS011;59659;41.520;23.794;2023-01-20T00:38:08;3.85;;;1.02;;
71814;SDS011;59659;41.520;23.794;2023-01-20T00:39:19;3.63;;;0.90;;
71814;SDS011;59659;41.520;23.794;2023-01-20T00:40:31;3.20;;;0.98;;
71814;SDS011;59659;41.520;23.794;2023-01-20T00:41:43;7.63;;;1.40;;
71814;SDS011;59659;41.520;23.794;2023-01-20T00:42:54;1.60;;;0.95;;
71814;SDS011;59659;41.520;23.794;2023-01-20T00:44:05;5.40;;;1.50;;
71814;SDS011;59659;41.520;23.794;2023-01-20T00:45:17;5.18;;;1.08;;
71814;SDS011;59659;41.520;23.794;2023-01-20T00:46:28;3.72;;;1.10;;
71814;SDS011;59659;41.520;23.794;2023-01-20T00:47:40;2.30;;;0.85;;
71814;SDS011;59659;41.520;23.794;2023-01-20T00:48:51;4.60;;;1.00;;
71814;SDS011;59659;41.520;23.794;2023-01-20T00:50:03;4.97;;;1.75;;
71814;SDS011;59659;41.520;23.794;2023-01-20T00:51:15;2.30;;;0.70;;
71814;SDS011;59659;41.520;23.794;2023-01-20T00:52:26;1.27;;;0.57;;
71814;SDS011;59659;41.520;23.794;2023-01-20T00:53:38;1.10;;;0.68;;
71814;SDS011;59659;41.520;23.794;2023-01-20T00:54:49;3.65;;;1.08;;
71814;SDS011;59659;41.520;23.794;2023-01-20T00:56:01;0.60;;;0.60;;
71814;SDS011;59659;41.520;23.794;2023-01-20T00:57:12;2.55;;;0.70;;
71814;SDS011;59659;41.520;23.794;2023-01-20T00:58:24;1.58;;;1.05;;
71814;SDS011;59659;41.520;23.794;2023-01-20T00:59:35;3.63;;;1.60;;
71814;SDS011;59659;41.520;23.794;2023-01-20T01:00:47;7.80;;;1.42;;
71814;SDS011;59659;41.520;23.794;2023-01-20T01:01:59;1.40;;;0.82;;
71814;SDS011;59659;41.520;23.794;2023-01-20T01:03:11;3.65;;;0.68;;
71814;SDS011;59659;41.520;23.794;2023-01-20T01:04:22;0.30;;;0.30;;
71814;SDS011;59659;41.520;23.794;2023-01-20T01:05:34;1.55;;;0.50;;
71814;SDS011;59659;41.520;23.794;2023-01-20T01:06:45;1.20;;;0.40;;
71814;SDS011;59659;41.520;23.794;2023-01-20T01:07:57;3.72;;;0.50;;
71814;SDS011;59659;41.520;23.794;2023-01-20T01:09:08;1.70;;;1.10;;
71814;SDS011;59659;41.520;23.794;2023-01-20T01:10:20;2.78;;;0.40;;
71814;SDS011;59659;41.520;23.794;2023-01-20T01:11:31;0.70;;;0.30;;
71814;SDS011;59659;41.520;23.794;2023-01-20T01:12:43;0.40;;;0.28;;
71814;SDS011;59659;41.520;23.794;2023-01-20T01:13:54;0.30;;;0.30;;
71814;SDS011;59659;41.520;23.794;2023-01-20T01:15:07;0.85;;;0.40;;
71814;SDS011;59659;41.520;23.794;2023-01-20T01:16:19;1.33;;;0.20;;
71814;SDS011;59659;41.520;23.794;2023-01-20T01:17:30;0.35;;;0.35;;
71814;SDS011;59659;41.520;23.794;2023-01-20T01:18:42;0.80;;;0.20;;
71814;SDS011;59659;41.520;23.794;2023-01-20T01:19:53;0.28;;;0.28;;
71814;SDS011;59659;41.520;23.794;2023-01-20T01:21:06;0.17;;;0.17;;
71814;SDS011;59659;41.520;23.794;2023-01-20T01:22:18;1.23;;;0.20;;
71814;SDS011;59659;41.520;23.794;2023-01-20T01:23:29;0.10;;;0.10;;
71814;SDS011;59659;41.520;23.794;2023-01-20T01:24:42;0.20;;;0.20;;
71814;SDS011;59659;41.520;23.794;2023-01-20T01:25:53;1.63;;;0.25;;
71814;SDS011;59659;41.520;23.794;2023-01-20T01:27:04;0.28;;;0.15;;
71814;SDS011;59659;41.520;23.794;2023-01-20T01:28:16;0.20;;;0.20;;
71814;SDS011;59659;41.520;23.794;2023-01-20T01:29:27;0.10;;;0.10;;
71814;SDS011;59659;41.520;23.794;2023-01-20T01:30:39;0.40;;;0.20;;
71814;SDS011;59659;41.520;23.794;2023-01-20T01:31:51;0.35;;;0.20;;
71814;SDS011;59659;41.520;23.794;2023-01-20T01:33:02;0.88;;;0.20;;
71814;SDS011;59659;41.520;23.794;2023-01-20T01:34:13;0.65;;;0.30;;
71814;SDS011;59659;41.520;23.794;2023-01-20T01:35:25;0.15;;;0.15;;
71814;SDS011;59659;41.520;23.794;2023-01-20T01:36:37;2.33;;;0.32;;
71814;SDS011;59659;41.520;23.794;2023-01-20T01:37:48;1.27;;;0.40;;
71814;SDS011;59659;41.520;23.794;2023-01-20T01:38:59;0.73;;;0.22;;
71814;SDS011;59659;41.520;23.794;2023-01-20T01:40:11;0.20;;;0.20;;
71814;SDS011;59659;41.520;23.794;2023-01-20T01:41:23;0.20;;;0.20;;
71814;SDS011;59659;41.520;23.794;2023-01-20T01:42:34;0.35;;;0.30;;
71814;SDS011;59659;41.520;23.794;2023-01-20T01:45:31;0.57;;;0.32;;
71814;SDS011;59659;41.520;23.794;2023-01-20T01:46:42;0.55;;;0.30;;
71814;SDS011;59659;41.520;23.794;2023-01-20T01:48:04;0.55;;;0.17;;
71814;SDS011;59659;41.520;23.794;2023-01-20T16:43:42;3.85;;;2.30;;
71814;SDS011;59659;41.520;23.794;2023-01-20T16:44:53;5.40;;;1.30;;
71814;SDS011;59659;41.520;23.794;2023-01-20T16:47:03;3.95;;;1.77;;
71814;SDS011;59659;41.520;23.794;2023-01-20T16:48:15;4.45;;;2.10;;
71814;SDS011;59659;41.520;23.794;2023-01-20T16:49:27;2.33;;;1.05;;
71814;SDS011;59659;41.520;23.794;2023-01-20T16:50:38;0.88;;;0.80;;
71814;SDS011;59659;41.520;23.794;2023-01-20T16:51:50;1.80;;;1.20;;
71814;SDS011;59659;41.520;23.794;2023-01-20T16:53:01;3.35;;;2.08;;
71814;SDS011;59659;41.520;23.794;2023-01-20T16:54:13;1.58;;;1.40;;
71814;SDS011;59659;41.520;23.794;2023-01-20T16:55:26;3.78;;;2.20;;
71814;SDS011;59659;41.520;23.794;2023-01-20T16:56:43;5.88;;;3.33;;
71814;SDS011;59659;41.520;23.794;2023-01-20T16:57:55;6.75;;;4.30;;
71814;SDS011;59659;41.520;23.794;2023-01-20T16:59:07;11.00;;;4.05;;
71814;SDS011;59659;41.520;23.794;2023-01-20T17:00:20;9.05;;;4.63;;
71814;SDS011;59659;41.520;23.794;2023-01-20T17:01:32;13.95;;;5.70;;
71814;SDS011;59659;41.520;23.794;2023-01-20T17:02:47;10.30;;;4.90;;
71814;SDS011;59659;41.520;23.794;2023-01-20T17:03:59;32.78;;;14.13;;
71814;SDS011;59659;41.520;23.794;2023-01-20T17:05:11;38.42;;;15.98;;
71814;SDS011;59659;41.520;23.794;2023-01-20T17:06:24;37.85;;;18.23;;
71814;SDS011;59659;41.520;23.794;2023-01-20T17:07:36;31.67;;;17.38;;
71814;SDS011;59659;41.520;23.794;2023-01-20T17:08:48;13.48;;;8.07;;
71814;SDS011;59659;41.520;23.794;2023-01-20T17:10:00;14.85;;;7.97;;
71814;SDS011;59659;41.520;23.794;2023-01-20T17:11:15;15.18;;;8.45;;
71814;SDS011;59659;41.520;23.794;2023-01-20T17:12:34;15.75;;;7.20;;
71814;SDS011;59659;41.520;23.794;2023-01-20T17:13:47;11.32;;;5.40;;
71814;SDS011;59659;41.520;23.794;2023-01-20T17:14:59;6.65;;;3.67;;
71814;SDS011;59659;41.520;23.794;2023-01-20T17:16:10;6.50;;;2.83;;
71814;SDS011;59659;41.520;23.794;2023-01-20T17:17:22;2.03;;;1.40;;
71814;SDS011;59659;41.520;23.794;2023-01-20T17:18:36;1.95;;;1.20;;
71814;SDS011;59659;41.520;23.794;2023-01-20T17:19:48;1.75;;;1.10;;
71814;SDS011;59659;41.520;23.794;2023-01-20T17:21:05;4.63;;;1.45;;
71814;SDS011;59659;41.520;23.794;2023-01-20T17:22:17;3.65;;;1.75;;
71814;SDS011;59659;41.520;23.794;2023-01-20T17:23:28;3.05;;;1.58;;
71814;SDS011;59659;41.520;23.794;2023-01-20T17:24:40;10.90;;;5.45;;
71814;SDS011;59659;41.520;23.794;2023-01-20T17:25:52;9.05;;;4.18;;
71814;SDS011;59659;41.520;23.794;2023-01-20T17:27:03;7.20;;;2.60;;
71814;SDS011;59659;41.520;23.794;2023-01-20T17:28:15;13.38;;;7.15;;
71814;SDS011;59659;41.520;23.794;2023-01-20T17:29:27;12.77;;;6.57;;
71814;SDS011;59659;41.520;23.794;2023-01-20T17:30:38;12.95;;;6.95;;
71814;SDS011;59659;41.520;23.794;2023-01-20T17:31:50;21.30;;;8.63;;
71814;SDS011;59659;41.520;23.794;2023-01-20T17:33:01;31.85;;;14.15;;
71814;SDS011;59659;41.520;23.794;2023-01-20T17:34:13;30.20;;;13.77;;
71814;SDS011;59659;41.520;23.794;2023-01-20T17:35:24;36.80;;;13.85;;
71814;SDS011;59659;41.520;23.794;2023-01-20T17:36:40;26.88;;;10.10;;
71814;SDS011;59659;41.520;23.794;2023-01-20T17:37:53;17.98;;;7.70;;
71814;SDS011;59659;41.520;23.794;2023-01-20T17:39:04;7.22;;;4.28;;
71814;SDS011;59659;41.520;23.794;2023-01-20T17:40:16;12.85;;;6.20;;
71814;SDS011;59659;41.520;23.794;2023-01-20T17:41:32;11.50;;;5.50;;
71814;SDS011;59659;41.520;23.794;2023-01-20T17:42:44;12.02;;;4.80;;
71814;SDS011;59659;41.520;23.794;2023-01-20T17:43:56;14.20;;;5.45;;
71814;SDS011;59659;41.520;23.794;2023-01-20T17:45:08;15.45;;;5.53;;
71814;SDS011;59659;41.520;23.794;2023-01-20T17:46:23;18.58;;;7.53;;
71814;SDS011;59659;41.520;23.794;2023-01-20T17:47:36;26.25;;;11.00;;
71814;SDS011;59659;41.520;23.794;2023-01-20T17:48:51;38.50;;;16.58;;
71814;SDS011;59659;41.520;23.794;2023-01-20T17:50:03;39.30;;;15.30;;
71814;SDS011;59659;41.520;23.794;2023-01-20T17:51:19;32.92;;;13.65;;
71814;SDS011;59659;41.520;23.794;2023-01-20T17:52:34;24.73;;;12.05;;
71814;SDS011;59659;41.520;23.794;2023-01-20T17:53:45;11.85;;;8.45;;
71814;SDS011;59659;41.520;23.794;2023-01-20T17:54:57;11.18;;;5.45;;
71814;SDS011;59659;41.520;23.794;2023-01-20T17:56:09;8.15;;;4.72;;
71814;SDS011;59659;41.520;23.794;2023-01-20T17:57:24;7.03;;;4.53;;
71814;SDS011;59659;41.520;23.794;2023-01-20T17:58:37;12.00;;;5.80;;
71814;SDS011;59659;41.520;23.794;2023-01-20T17:59:49;10.32;;;5.65;;
71814;SDS011;59659;41.520;23.794;2023-01-20T18:01:23;13.05;;;6.13;;
71814;SDS011;59659;41.520;23.794;2023-01-20T18:02:33;11.75;;;4.70;;
71814;SDS011;59659;41.520;23.794;2023-01-20T18:03:46;9.98;;;4.75;;
71814;SDS011;59659;41.520;23.794;2023-01-20T18:04:58;8.73;;;4.03;;
71814;SDS011;59659;41.520;23.794;2023-01-20T18:06:10;13.15;;;4.47;;
71814;SDS011;59659;41.520;23.794;2023-01-20T18:07:22;15.10;;;6.53;;
71814;SDS011;59659;41.520;23.794;2023-01-20T18:08:34;15.10;;;7.07;;
71814;SDS011;59659;41.520;23.794;2023-01-20T18:09:45;17.73;;;7.13;;
71814;SDS011;59659;41.520;23.794;2023-01-20T18:11:17;15.85;;;6.63;;
71814;SDS011;59659;41.520;23.794;2023-01-20T18:12:33;13.10;;;5.05;;
71814;SDS011;59659;41.520;23.794;2023-01-20T18:13:47;9.25;;;4.82;;
71814;SDS011;59659;41.520;23.794;2023-01-20T18:14:59;6.70;;;4.43;;
71814;SDS011;59659;41.520;23.794;2023-01-20T18:16:11;8.23;;;3.75;;
71814;SDS011;59659;41.520;23.794;2023-01-20T18:17:23;13.73;;;5.60;;
71814;SDS011;59659;41.520;23.794;2023-01-20T18:18:35;17.42;;;9.32;;
71814;SDS011;59659;41.520;23.794;2023-01-20T18:19:48;21.95;;;9.20;;
71814;SDS011;59659;41.520;23.794;2023-01-20T18:21:06;10.93;;;3.95;;
71814;SDS011;59659;41.520;23.794;2023-01-20T18:22:18;12.35;;;5.80;;
71814;SDS011;59659;41.520;23.794;2023-01-20T18:23:30;9.88;;;4.20;;
71814;SDS011;59659;41.520;23.794;2023-01-20T18:24:41;12.15;;;4.50;;
71814;SDS011;59659;41.520;23.794;2023-01-20T18:25:53;17.10;;;6.75;;
71814;SDS011;59659;41.520;23.794;2023-01-20T18:27:06;18.23;;;7.40;;
71814;SDS011;59659;41.520;23.794;2023-01-20T18:28:18;16.45;;;6.32;;
71814;SDS011;59659;41.520;23.794;2023-01-20T18:29:29;12.27;;;6.30;;
71814;SDS011;59659;41.520;23.794;2023-01-20T18:30:41;19.48;;;7.38;;
71814;SDS011;59659;41.520;23.794;2023-01-20T18:31:53;26.38;;;9.13;;
71814;SDS011;59659;41.520;23.794;2023-01-20T18:33:04;32.80;;;13.73;;
71814;SDS011;59659;41.520;23.794;2023-01-20T18:34:16;37.33;;;13.73;;
71814;SDS011;59659;41.520;23.794;2023-01-20T18:35:28;27.48;;;9.75;;
71814;SDS011;59659;41.520;23.794;2023-01-20T18:36:40;20.05;;;10.00;;
71814;SDS011;59659;41.520;23.794;2023-01-20T18:37:52;21.25;;;9.35;;
71814;SDS011;59659;41.520;23.794;2023-01-20T18:39:09;17.60;;;6.50;;
71814;SDS011;59659;41.520;23.794;2023-01-20T18:40:23;32.42;;;12.10;;
71814;SDS011;59659;41.520;23.794;2023-01-20T18:41:35;26.70;;;10.43;;
71814;SDS011;59659;41.520;23.794;2023-01-20T18:42:48;23.02;;;10.10;;
71814;SDS011;59659;41.520;23.794;2023-01-20T18:43:59;22.70;;;8.48;;
71814;SDS011;59659;41.520;23.794;2023-01-20T18:45:11;15.30;;;6.95;;
71814;SDS011;59659;41.520;23.794;2023-01-20T18:46:23;11.15;;;5.13;;
71814;SDS011;59659;41.520;23.794;2023-01-20T18:47:35;14.18;;;6.75;;
71814;SDS011;59659;41.520;23.794;2023-01-20T18:48:47;11.60;;;5.72;;
71814;SDS011;59659;41.520;23.794;2023-01-20T18:49:59;12.32;;;7.03;;
71814;SDS011;59659;41.520;23.794;2023-01-20T18:51:12;9.50;;;4.88;;
71814;SDS011;59659;41.520;23.794;2023-01-20T18:52:26;21.23;;;10.60;;
71814;SDS011;59659;41.520;23.794;2023-01-20T18:53:38;26.83;;;12.10;;
71814;SDS011;59659;41.520;23.794;2023-01-20T18:54:50;25.27;;;12.00;;
71814;SDS011;59659;41.520;23.794;2023-01-20T18:56:02;17.55;;;9.27;;
71814;SDS011;59659;41.520;23.794;2023-01-20T18:57:16;40.30;;;14.18;;
71814;SDS011;59659;41.520;23.794;2023-01-20T18:58:28;20.35;;;8.75;;
71814;SDS011;59659;41.520;23.794;2023-01-20T18:59:39;14.85;;;6.47;;
71814;SDS011;59659;41.520;23.794;2023-01-20T19:00:52;13.60;;;7.05;;
71814;SDS011;59659;41.520;23.794;2023-01-20T19:02:03;18.77;;;7.78;;
71814;SDS011;59659;41.520;23.794;2023-01-20T19:03:15;18.17;;;8.10;;
71814;SDS011;59659;41.520;23.794;2023-01-20T19:04:27;28.48;;;12.20;;
71814;SDS011;59659;41.520;23.794;2023-01-20T19:05:40;39.67;;;13.90;;
71814;SDS011;59659;41.520;23.794;2023-01-20T19:06:52;37.28;;;14.20;;
71814;SDS011;59659;41.520;23.794;2023-01-20T19:08:04;31.73;;;13.02;;
71814;SDS011;59659;41.520;23.794;2023-01-20T19:09:15;30.00;;;10.90;;
71814;SDS011;59659;41.520;23.794;2023-01-20T19:10:27;19.73;;;9.57;;
71814;SDS011;59659;41.520;23.794;2023-01-20T19:11:41;35.92;;;15.55;;
71814;SDS011;59659;41.520;23.794;2023-01-20T19:12:53;37.15;;;17.88;;
71814;SDS011;59659;41.520;23.794;2023-01-20T19:14:06;20.65;;;9.55;;
71814;SDS011;59659;41.520;23.794;2023-01-20T19:15:18;27.52;;;12.32;;
71814;SDS011;59659;41.520;23.794;2023-01-20T19:16:31;20.75;;;10.15;;
71814;SDS011;59659;41.520;23.794;2023-01-20T19:17:42;15.90;;;9.93;;
71814;SDS011;59659;41.520;23.794;2023-01-20T19:18:55;29.83;;;12.43;;
71814;SDS011;59659;41.520;23.794;2023-01-20T19:20:08;22.63;;;10.63;;
71814;SDS011;59659;41.520;23.794;2023-01-20T19:21:21;21.48;;;10.02;;
71814;SDS011;59659;41.520;23.794;2023-01-20T19:22:32;19.00;;;9.40;;
71814;SDS011;59659;41.520;23.794;2023-01-20T19:23:46;15.68;;;7.38;;
71814;SDS011;59659;41.520;23.794;2023-01-20T19:24:58;9.00;;;4.25;;
71814;SDS011;59659;41.520;23.794;2023-01-20T19:26:11;10.30;;;5.10;;
71814;SDS011;59659;41.520;23.794;2023-01-20T19:27:22;18.95;;;7.10;;
71814;SDS011;59659;41.520;23.794;2023-01-20T19:28:36;13.30;;;6.38;;
71814;SDS011;59659;41.520;23.794;2023-01-20T19:29:49;15.55;;;6.90;;
71814;SDS011;59659;41.520;23.794;2023-01-20T19:31:08;15.80;;;7.30;;
71814;SDS011;59659;41.520;23.794;2023-01-20T19:32:23;14.88;;;6.50;;
71814;SDS011;59659;41.520;23.794;2023-01-20T19:33:34;13.65;;;6.43;;
71814;SDS011;59659;41.520;23.794;2023-01-20T19:34:46;12.10;;;6.07;;
71814;SDS011;59659;41.520;23.794;2023-01-20T19:35:58;17.05;;;5.72;;
71814;SDS011;59659;41.520;23.794;2023-01-20T19:37:10;11.25;;;5.93;;
71814;SDS011;59659;41.520;23.794;2023-01-20T19:38:21;16.27;;;7.50;;
71814;SDS011;59659;41.520;23.794;2023-01-20T19:39:33;14.07;;;7.25;;
71814;SDS011;59659;41.520;23.794;2023-01-20T19:40:44;21.25;;;9.10;;
71814;SDS011;59659;41.520;23.794;2023-01-20T19:41:56;13.05;;;7.22;;
71814;SDS011;59659;41.520;23.794;2023-01-20T19:43:10;18.88;;;8.07;;
71814;SDS011;59659;41.520;23.794;2023-01-20T19:44:21;15.27;;;6.53;;
71814;SDS011;59659;41.520;23.794;2023-01-20T19:45:35;16.10;;;8.07;;
71814;SDS011;59659;41.520;23.794;2023-01-20T19:46:56;16.48;;;8.88;;
71814;SDS011;59659;41.520;23.794;2023-01-20T19:48:12;12.45;;;5.53;;
71814;SDS011;59659;41.520;23.794;2023-01-20T19:49:24;11.18;;;4.72;;
71814;SDS011;59659;41.520;23.794;2023-01-20T19:50:35;34.38;;;17.67;;
71814;SDS011;59659;41.520;23.794;2023-01-20T19:51:47;24.75;;;14.75;;
71814;SDS011;59659;41.520;23.794;2023-01-20T19:52:59;49.92;;;26.52;;
71814;SDS011;59659;41.520;23.794;2023-01-20T19:54:11;22.98;;;12.68;;
71814;SDS011;59659;41.520;23.794;2023-01-20T19:55:23;19.50;;;11.30;;
71814;SDS011;59659;41.520;23.794;2023-01-20T19:56:35;14.80;;;8.13;;
71814;SDS011;59659;41.520;23.794;2023-01-20T19:57:49;14.93;;;6.47;;
71814;SDS011;59659;41.520;23.794;2023-01-20T19:59:01;13.77;;;6.10;;
71814;SDS011;59659;41.520;23.794;2023-01-20T20:00:12;9.48;;;5.05;;
71814;SDS011;59659;41.520;23.794;2023-01-20T20:01:25;25.45;;;10.60;;
71814;SDS011;59659;41.520;23.794;2023-01-20T20:02:41;25.65;;;11.20;;
71814;SDS011;59659;41.520;23.794;2023-01-20T20:03:56;23.00;;;8.95;;
71814;SDS011;59659;41.520;23.794;2023-01-20T20:05:07;18.48;;;8.43;;
71814;SDS011;59659;41.520;23.794;2023-01-20T20:07:37;17.10;;;8.90;;
71814;SDS011;59659;41.520;23.794;2023-01-20T20:08:49;11.85;;;6.28;;
71814;SDS011;59659;41.520;23.794;2023-01-20T20:10:01;9.50;;;5.55;;
71814;SDS011;59659;41.520;23.794;2023-01-20T20:11:12;11.40;;;3.78;;
71814;SDS011;59659;41.520;23.794;2023-01-20T20:12:23;5.45;;;3.42;;
71814;SDS011;59659;41.520;23.794;2023-01-20T20:13:35;3.03;;;1.95;;
71814;SDS011;59659;41.520;23.794;2023-01-20T20:14:47;3.13;;;2.10;;
71814;SDS011;59659;41.520;23.794;2023-01-20T20:15:59;6.07;;;2.38;;
71814;SDS011;59659;41.520;23.794;2023-01-20T20:17:11;4.18;;;1.92;;
71814;SDS011;59659;41.520;23.794;2023-01-20T20:18:22;3.20;;;2.20;;
71814;SDS011;59659;41.520;23.794;2023-01-20T20:19:36;6.82;;;3.53;;
71814;SDS011;59659;41.520;23.794;2023-01-20T20:20:48;6.35;;;3.53;;
71814;SDS011;59659;41.520;23.794;2023-01-20T20:22:00;64.97;;;20.77;;
71814;SDS011;59659;41.520;23.794;2023-01-20T20:23:11;308.98;;;98.80;;
71814;SDS011;59659;41.520;23.794;2023-01-20T20:24:23;161.02;;;55.60;;
71814;SDS011;59659;41.520;23.794;2023-01-20T20:25:34;46.58;;;19.63;;
71814;SDS011;59659;41.520;23.794;2023-01-20T20:26:48;45.92;;;16.73;;
71814;SDS011;59659;41.520;23.794;2023-01-20T20:27:59;24.25;;;10.27;;
71814;SDS011;59659;41.520;23.794;2023-01-20T20:29:14;15.77;;;6.40;;
71814;SDS011;59659;41.520;23.794;2023-01-20T20:30:26;29.25;;;13.35;;
71814;SDS011;59659;41.520;23.794;2023-01-20T20:31:38;24.58;;;12.05;;
71814;SDS011;59659;41.520;23.794;2023-01-20T20:32:50;29.40;;;10.07;;
71814;SDS011;59659;41.520;23.794;2023-01-20T20:34:03;34.85;;;12.50;;
71814;SDS011;59659;41.520;23.794;2023-01-20T20:35:15;46.28;;;14.48;;
71814;SDS011;59659;41.520;23.794;2023-01-20T20:36:27;39.17;;;15.48;;
71814;SDS011;59659;41.520;23.794;2023-01-20T20:37:39;38.22;;;13.55;;
71814;SDS011;59659;41.520;23.794;2023-01-20T20:38:51;39.95;;;12.45;;
71814;SDS011;59659;41.520;23.794;2023-01-20T20:40:04;65.15;;;17.30;;
71814;SDS011;59659;41.520;23.794;2023-01-20T20:41:16;84.97;;;24.27;;
71814;SDS011;59659;41.520;23.794;2023-01-20T20:42:28;69.18;;;20.00;;
71814;SDS011;59659;41.520;23.794;2023-01-20T20:43:40;44.08;;;17.73;;
71814;SDS011;59659;41.520;23.794;2023-01-20T20:44:52;38.05;;;11.93;;
71814;SDS011;59659;41.520;23.794;2023-01-20T20:46:04;26.95;;;9.52;;
71814;SDS011;59659;41.520;23.794;2023-01-20T20:47:16;9.95;;;2.65;;
71814;SDS011;59659;41.520;23.794;2023-01-20T20:48:29;7.20;;;3.17;;
71814;SDS011;59659;41.520;23.794;2023-01-20T20:49:40;5.65;;;2.85;;
71814;SDS011;59659;41.520;23.794;2023-01-20T20:50:52;6.65;;;3.30;;
71814;SDS011;59659;41.520;23.794;2023-01-20T20:52:04;15.85;;;7.53;;
71814;SDS011;59659;41.520;23.794;2023-01-20T20:53:15;12.93;;;5.97;;
71814;SDS011;59659;41.520;23.794;2023-01-20T20:54:29;9.15;;;4.00;;
71814;SDS011;59659;41.520;23.794;2023-01-20T20:55:40;4.38;;;2.55;;
71814;SDS011;59659;41.520;23.794;2023-01-20T20:56:52;6.07;;;3.22;;
71814;SDS011;59659;41.520;23.794;2023-01-20T20:58:04;4.82;;;2.45;;
71814;SDS011;59659;41.520;23.794;2023-01-20T20:59:16;5.35;;;2.15;;
71814;SDS011;59659;41.520;23.794;2023-01-20T21:00:33;5.78;;;2.53;;
71814;SDS011;59659;41.520;23.794;2023-01-20T21:01:44;4.60;;;3.10;;
71814;SDS011;59659;41.520;23.794;2023-01-20T21:02:56;14.25;;;5.68;;
71814;SDS011;59659;41.520;23.794;2023-01-20T21:04:07;8.30;;;4.25;;
71814;SDS011;59659;41.520;23.794;2023-01-20T21:05:19;14.07;;;4.68;;
71814;SDS011;59659;41.520;23.794;2023-01-20T21:06:31;6.80;;;3.63;;
71814;SDS011;59659;41.520;23.794;2023-01-20T21:07:43;5.68;;;3.00;;
71814;SDS011;59659;41.520;23.794;2023-01-20T21:08:54;1.50;;;1.40;;
71814;SDS011;59659;41.520;23.794;2023-01-20T21:10:09;5.05;;;2.60;;
71814;SDS011;59659;41.520;23.794;2023-01-20T21:11:22;4.30;;;2.67;;
71814;SDS011;59659;41.520;23.794;2023-01-20T21:12:35;3.83;;;1.95;;
71814;SDS011;59659;41.520;23.794;2023-01-20T21:13:46;20.15;;;8.55;;
71814;SDS011;59659;41.520;23.794;2023-01-20T21:15:01;13.70;;;7.68;;
71814;SDS011;59659;41.520;23.794;2023-01-20T21:16:13;16.15;;;7.47;;
71814;SDS011;59659;41.520;23.794;2023-01-20T21:17:25;10.93;;;5.65;;
71814;SDS011;59659;41.520;23.794;2023-01-20T21:18:37;8.13;;;4.10;;
71814;SDS011;59659;41.520;23.794;2023-01-20T21:19:49;10.05;;;4.55;;
71814;SDS011;59659;41.520;23.794;2023-01-20T21:21:03;10.32;;;5.13;;
71814;SDS011;59659;41.520;23.794;2023-01-20T21:22:15;27.30;;;13.13;;
71814;SDS011;59659;41.520;23.794;2023-01-20T21:23:27;20.83;;;11.60;;
71814;SDS011;59659;41.520;23.794;2023-01-20T21:24:39;7.28;;;3.90;;
71814;SDS011;59659;41.520;23.794;2023-01-20T21:25:52;10.30;;;4.10;;
71814;SDS011;59659;41.520;23.794;2023-01-20T21:27:06;5.00;;;2.55;;
71814;SDS011;59659;41.520;23.794;2023-01-20T21:28:20;5.55;;;2.28;;
71814;SDS011;59659;41.520;23.794;2023-01-20T21:29:32;7.28;;;3.45;;
71814;SDS011;59659;41.520;23.794;2023-01-20T21:30:44;4.28;;;2.33;;
71814;SDS011;59659;41.520;23.794;2023-01-20T21:31:56;5.00;;;2.85;;
71814;SDS011;59659;41.520;23.794;2023-01-20T21:33:07;8.48;;;3.92;;
71814;SDS011;59659;41.520;23.794;2023-01-20T21:34:23;18.95;;;6.97;;
71814;SDS011;59659;41.520;23.794;2023-01-20T21:35:38;11.75;;;6.72;;
71814;SDS011;59659;41.520;23.794;2023-01-20T21:36:49;13.63;;;6.93;;
71814;SDS011;59659;41.520;23.794;2023-01-20T21:38:01;15.45;;;6.85;;
71814;SDS011;59659;41.520;23.794;2023-01-20T21:39:14;6.55;;;3.97;;
71814;SDS011;59659;41.520;23.794;2023-01-20T21:40:26;4.35;;;2.65;;
71814;SDS011;59659;41.520;23.794;2023-01-20T21:41:37;3.08;;;1.98;;
71814;SDS011;59659;41.520;23.794;2023-01-20T21:42:52;3.75;;;2.33;;
71814;SDS011;59659;41.520;23.794;2023-01-20T21:44:03;4.32;;;1.70;;
71814;SDS011;59659;41.520;23.794;2023-01-20T21:45:33;8.00;;;4.18;;
71814;SDS011;59659;41.520;23.794;2023-01-20T21:46:45;6.38;;;2.92;;
71814;SDS011;59659;41.520;23.794;2023-01-20T21:47:56;5.00;;;2.10;;
71814;SDS011;59659;41.520;23.794;2023-01-20T21:49:28;5.72;;;3.58;;
71814;SDS011;59659;41.520;23.794;2023-01-20T21:50:59;11.35;;;5.82;;
71814;SDS011;59659;41.520;23.794;2023-01-20T21:52:29;11.35;;;5.20;;
71814;SDS011;59659;41.520;23.794;2023-01-20T21:53:54;14.20;;;5.95;;
71814;SDS011;59659;41.520;23.794;2023-01-20T21:55:07;10.75;;;5.65;;
71814;SDS011;59659;41.520;23.794;2023-01-20T21:56:19;16.98;;;7.20;;
71814;SDS011;59659;41.520;23.794;2023-01-20T21:57:32;9.50;;;4.78;;
71814;SDS011;59659;41.520;23.794;2023-01-20T21:58:44;10.23;;;4.25;;
71814;SDS011;59659;41.520;23.794;2023-01-20T21:59:55;9.13;;;3.90;;
71814;SDS011;59659;41.520;23.794;2023-01-20T22:01:07;5.80;;;2.90;;
71814;SDS011;59659;41.520;23.794;2023-01-20T22:02:19;3.70;;;1.77;;
71814;SDS011;59659;41.520;23.794;2023-01-20T22:03:30;7.78;;;3.15;;
71814;SDS011;59659;41.520;23.794;2023-01-20T22:04:42;7.97;;;3.17;;
71814;SDS011;59659;41.520;23.794;2023-01-20T22:05:53;6.93;;;3.17;;